createdAt,value
2023-03-31T00:03:03.917Z,97126.00
2023-03-31T00:06:58.870Z,97131.55
2023-03-31T00:10:48.024Z,97138.46
2023-03-31T00:14:37.375Z,97134.14
2023-03-31T00:18:28.158Z,97140.94
2023-03-31T00:22:18.132Z,97141.52
2023-03-31T00:26:08.621Z,97135.02
2023-03-31T00:29:58.547Z,97142.67
2023-03-31T00:33:47.754Z,97137.66
2023-03-31T00:37:37.988Z,97137.26
2023-03-31T00:41:24.431Z,97139.96
2023-03-31T00:45:07.812Z,97133.52
2023-03-31T00:49:06.714Z,97127.86
2023-03-31T00:52:57.476Z,97132.60
2023-03-31T01:08:57.244Z,97130.59
2023-03-31T01:12:45.002Z,97131.30
2023-03-31T01:16:32.539Z,97130.73
2023-03-31T01:20:22.829Z,97121.70
2023-03-31T01:24:13.952Z,97121.17
2023-03-31T01:36:55.827Z,97139.61
2023-03-31T01:40:57.091Z,97147.59
2023-03-31T01:44:58.423Z,97146.67
2023-03-31T01:57:09.509Z,97131.52
2023-03-31T02:01:07.612Z,97133.93
2023-03-31T02:13:02.650Z,97122.69
2023-03-31T02:16:51.928Z,97118.41
2023-03-31T02:20:40.999Z,97116.56
2023-03-31T02:24:30.049Z,97114.77
2023-03-31T02:28:24.864Z,97109.52
2023-03-31T02:32:26.008Z,97104.25
2023-03-31T02:36:15.406Z,97105.56
2023-03-31T02:40:06.161Z,97106.52
2023-03-31T02:43:55.287Z,97103.34
2023-03-31T03:00:22.810Z,97098.13
2023-03-31T03:04:13.452Z,97094.46
2023-03-31T03:08:26.657Z,97094.61
2023-03-31T03:20:35.564Z,97085.16
2023-03-31T03:24:24.957Z,97079.42
2023-03-31T03:28:13.933Z,97080.02
2023-03-31T03:32:03.037Z,97074.36
2023-03-31T03:47:58.382Z,97053.23
2023-03-31T03:51:46.040Z,97050.58
2023-03-31T03:56:03.762Z,97047.08
2023-03-31T03:59:52.604Z,97043.02
2023-03-31T04:03:41.851Z,97039.70
2023-03-31T04:07:29.572Z,97034.64
2023-03-31T04:11:09.117Z,97029.27
2023-03-31T04:14:47.911Z,97028.85
2023-03-31T04:18:25.742Z,97029.54
2023-03-31T04:21:34.998Z,97029.15
2023-03-31T04:24:58.673Z,97030.60
2023-03-31T04:28:47.622Z,97026.70
2023-03-31T04:32:31.567Z,97027.29
2023-03-31T04:35:20.745Z,97029.98
2023-03-31T04:38:33.994Z,97029.64
2023-03-31T04:41:45.691Z,97032.16
2023-03-31T04:45:14.518Z,97030.15
2023-03-31T04:48:34.745Z,97022.66
2023-03-31T04:51:53.175Z,97019.36
2023-03-31T04:54:51.748Z,97012.30
2023-03-31T04:58:24.982Z,97005.06
2023-03-31T05:01:27.713Z,97004.95
2023-03-31T05:04:26.763Z,97001.48
2023-03-31T05:07:41.608Z,96998.65
2023-03-31T05:11:20.723Z,96999.19
2023-03-31T05:14:45.805Z,97004.76
2023-03-31T05:18:05.018Z,96998.85
2023-03-31T05:21:48.469Z,96996.23
2023-03-31T05:25:27.572Z,96989.89
2023-03-31T05:29:17.585Z,96987.96
2023-03-31T05:32:54.218Z,96978.77
2023-03-31T06:01:42.797Z,96966.29
2023-03-31T06:05:08.259Z,96966.27
2023-03-31T06:08:01.342Z,96972.89
2023-03-31T06:11:38.998Z,96971.92
2023-03-31T06:15:27.025Z,96968.92
2023-03-31T06:19:14.984Z,96972.39
2023-03-31T06:23:01.697Z,96974.40
2023-03-31T06:26:50.272Z,96969.82
2023-03-31T06:30:37.911Z,96971.36
2023-03-31T06:34:14.214Z,96979.16
2023-03-31T06:37:56.992Z,96973.23
2023-03-31T06:40:43.832Z,96964.65
2023-03-31T06:43:23.415Z,96963.00
2023-03-31T06:46:03.758Z,96963.47
2023-03-31T06:49:36.217Z,96966.15
2023-03-31T06:53:03.413Z,96969.83
2023-03-31T06:56:33.008Z,96962.20
2023-03-31T07:00:22.361Z,96955.33
2023-03-31T07:04:10.934Z,96960.77
2023-03-31T07:07:38.490Z,96960.50
2023-03-31T07:11:26.512Z,96965.97
2023-03-31T07:14:53.852Z,96968.42
2023-03-31T07:18:42.485Z,96967.30
2023-03-31T07:36:44.763Z,96956.70
2023-03-31T07:40:24.423Z,96950.10
2023-03-31T07:43:15.928Z,96948.59
2023-03-31T07:46:03.339Z,96946.52
2023-03-31T07:48:37.551Z,96948.52
2023-03-31T07:52:08.829Z,96941.70
2023-03-31T07:55:57.935Z,96937.48
2023-03-31T07:59:47.054Z,96929.95
2023-03-31T08:03:09.665Z,96927.48
2023-03-31T08:06:48.871Z,96921.96
2023-03-31T08:10:17.028Z,96917.80
2023-03-31T08:13:37.230Z,96903.48
2023-03-31T08:17:15.348Z,96892.96
2023-03-31T08:21:02.133Z,96881.54
2023-03-31T08:35:29.505Z,96840.65
2023-03-31T08:39:07.443Z,96836.19
2023-03-31T08:42:42.312Z,96828.94
2023-03-31T08:45:56.491Z,96833.33
2023-03-31T08:49:01.371Z,96837.41
2023-03-31T08:52:39.336Z,96830.86
2023-03-31T08:56:24.414Z,96827.30
2023-03-31T08:59:55.780Z,96824.45
2023-03-31T09:03:22.864Z,96826.75
2023-03-31T09:06:56.831Z,96814.62
2023-03-31T09:25:13.762Z,96793.60
2023-03-31T09:28:41.247Z,96788.77
2023-03-31T09:32:09.233Z,96776.95
2023-03-31T09:35:58.494Z,96764.16
2023-03-31T09:39:21.619Z,96762.44
2023-03-31T09:42:07.458Z,96761.84
2023-03-31T09:45:01.139Z,96766.58
2023-03-31T09:47:46.357Z,96765.38
2023-03-31T09:51:37.901Z,96760.00
2023-03-31T09:55:07.801Z,96753.22
2023-03-31T09:58:35.806Z,96749.35
2023-03-31T10:12:09.663Z,96732.36
2023-03-31T10:30:23.795Z,96720.20
2023-03-31T10:34:13.149Z,96719.41
2023-03-31T10:37:41.758Z,96712.77
2023-03-31T10:41:16.527Z,96709.93
2023-03-31T10:59:08.412Z,96684.40
2023-03-31T11:07:14.396Z,96675.73
2023-03-31T11:10:25.967Z,96676.23
2023-03-31T11:14:28.731Z,96672.66
2023-03-31T11:38:00.758Z,96635.67
2023-03-31T11:41:37.180Z,96629.88
2023-03-31T11:45:23.364Z,96620.88
2023-03-31T11:49:16.808Z,96612.01
2023-03-31T12:03:53.622Z,96581.73
2023-03-31T12:07:35.838Z,96578.59
2023-03-31T12:10:52.927Z,96571.06
2023-03-31T12:14:34.314Z,96569.17
2023-03-31T12:17:55.273Z,96570.40
2023-03-31T12:21:29.708Z,96567.28
2023-03-31T12:25:02.421Z,96565.76
2023-03-31T12:28:34.309Z,96562.84
2023-03-31T12:32:03.164Z,96557.23
2023-03-31T12:51:30.921Z,96537.67
2023-03-31T12:55:17.987Z,96540.35
2023-03-31T12:59:25.748Z,96543.42
2023-03-31T13:03:04.507Z,96540.19
2023-03-31T13:07:31.576Z,96537.20
2023-03-31T13:11:32.577Z,96535.45
2023-03-31T13:19:16.497Z,96515.04
2023-03-31T13:37:51.021Z,96502.14
2023-03-31T13:41:31.633Z,96479.84
2023-03-31T13:45:11.622Z,96458.28
2023-03-31T13:52:00.598Z,96436.67
2023-03-31T13:55:18.792Z,96428.89
2023-03-31T13:59:05.950Z,96427.04
2023-03-31T14:14:31.794Z,96396.16
2023-03-31T14:17:52.023Z,96387.46
2023-03-31T14:21:30.100Z,96379.91
2023-03-31T14:25:17.503Z,96375.32
2023-03-31T14:28:59.065Z,96370.88
2023-03-31T14:32:20.238Z,96361.85
2023-03-31T14:35:08.697Z,96355.23
2023-03-31T14:37:43.755Z,96351.58
2023-03-31T14:54:57.470Z,96327.58
2023-03-31T14:58:39.018Z,96319.35
2023-03-31T15:02:21.483Z,96320.99
2023-03-31T15:06:09.582Z,96322.02
2023-03-31T15:09:32.216Z,96310.82
2023-03-31T15:12:55.905Z,96306.45
2023-03-31T15:16:21.661Z,96301.39
2023-03-31T15:20:00.209Z,96299.20
2023-03-31T15:24:04.128Z,96291.48
2023-03-31T15:27:58.919Z,96279.25
2023-03-31T15:45:35.949Z,96234.92
2023-03-31T15:49:15.862Z,96229.79
2023-03-31T15:52:05.247Z,96220.27
2023-03-31T15:56:05.106Z,96212.89
2023-03-31T15:59:56.419Z,96211.36
2023-03-31T16:03:34.805Z,96205.20
2023-03-31T16:07:04.201Z,96202.52
2023-03-31T16:10:51.576Z,96210.08
2023-03-31T16:25:42.932Z,96191.02
2023-03-31T16:29:10.003Z,96190.58
2023-03-31T16:32:53.513Z,96187.16
2023-03-31T16:36:27.372Z,96184.92
2023-03-31T16:39:48.271Z,96178.70
2023-03-31T16:43:27.584Z,96170.77
2023-03-31T16:47:17.512Z,96164.64
2023-03-31T16:50:48.075Z,96165.11
2023-03-31T16:54:36.020Z,96160.23
2023-03-31T16:58:23.788Z,96161.55
2023-03-31T17:02:14.062Z,96153.05
2023-03-31T17:05:24.783Z,96148.40
2023-03-31T17:08:39.794Z,96147.41
2023-03-31T17:11:56.304Z,96147.05
2023-03-31T17:15:41.854Z,96139.36
2023-03-31T17:31:20.186Z,96130.21
2023-03-31T17:35:09.462Z,96128.80
2023-03-31T17:39:01.735Z,96123.41
2023-03-31T17:50:57.152Z,96112.16
2023-03-31T17:54:49.423Z,96111.83
2023-03-31T18:06:55.789Z,96112.16
2023-03-31T18:10:43.306Z,96115.75
2023-03-31T18:14:31.283Z,96125.41
2023-03-31T18:18:40.828Z,96119.13
2023-03-31T18:22:30.041Z,96105.30
2023-03-31T18:26:08.779Z,96101.95
2023-03-31T18:29:58.112Z,96105.95
2023-03-31T18:33:46.942Z,96112.82
2023-03-31T18:37:37.303Z,96110.66
2023-03-31T18:41:29.195Z,96106.33
2023-03-31T19:00:52.552Z,96095.23
2023-03-31T19:04:42.136Z,96092.37
2023-03-31T19:08:31.082Z,96091.52
2023-03-31T19:12:20.210Z,96090.96
2023-03-31T19:16:10.402Z,96097.66
2023-03-31T19:20:00.596Z,96090.13
2023-03-31T19:46:52.830Z,96215.09
2023-03-31T19:50:41.607Z,96204.61
2023-03-31T19:54:30.073Z,96196.98
2023-03-31T20:02:10.006Z,96179.64
2023-03-31T20:05:21.921Z,96165.65
2023-03-31T20:09:10.930Z,96145.31
2023-03-31T20:12:54.391Z,96157.81
2023-03-31T20:16:38.042Z,96156.55
2023-03-31T20:20:26.145Z,96159.90
2023-03-31T20:23:08.088Z,96158.33
2023-03-31T20:26:36.849Z,96162.06
2023-03-31T20:30:26.421Z,96157.17
2023-03-31T20:34:15.376Z,96157.86
2023-03-31T20:38:04.337Z,96156.70
2023-03-31T20:41:53.430Z,96156.77
2023-03-31T20:45:25.536Z,96165.92
2023-03-31T20:49:14.293Z,96175.75
2023-03-31T20:53:03.593Z,96178.77
2023-03-31T20:56:53.397Z,96181.39
2023-03-31T21:00:07.356Z,96182.15
2023-03-31T21:03:56.601Z,96182.46
2023-03-31T21:07:39.185Z,96184.64
2023-03-31T21:11:29.154Z,96183.52
2023-03-31T21:34:41.137Z,96182.39
2023-03-31T21:38:30.341Z,96183.52
2023-03-31T21:42:19.354Z,96187.91
2023-03-31T21:46:08.674Z,96185.44
2023-03-31T21:49:57.673Z,96185.98
2023-03-31T21:53:46.645Z,96188.50
2023-03-31T21:57:34.388Z,96183.40
2023-03-31T22:01:23.577Z,96187.98
2023-03-31T22:05:16.793Z,96195.95
2023-03-31T22:08:52.140Z,96185.20
2023-03-31T22:12:41.107Z,96189.89
2023-03-31T22:16:30.322Z,96193.81
2023-03-31T22:20:19.644Z,96200.84
2023-03-31T22:24:08.817Z,96200.61
2023-03-31T22:27:57.929Z,96212.58
2023-03-31T22:31:48.984Z,96211.31
2023-03-31T22:35:39.448Z,96214.16
2023-03-31T22:39:09.006Z,96221.26
2023-03-31T22:42:20.010Z,96213.65
2023-03-31T22:46:09.664Z,96220.79
2023-03-31T22:49:59.405Z,96218.61
2023-03-31T22:53:29.204Z,96218.08
2023-03-31T22:57:18.081Z,96218.60
2023-03-31T23:01:07.514Z,96218.35
2023-03-31T23:04:56.446Z,96221.98
2023-03-31T23:08:45.906Z,96221.90
2023-03-31T23:12:34.958Z,96221.46
2023-03-31T23:16:24.032Z,96213.71
2023-03-31T23:20:12.925Z,96206.52
2023-03-31T23:24:01.904Z,96196.91
2023-03-31T23:27:51.024Z,96188.80
2023-03-31T23:31:40.376Z,96179.39
2023-03-31T23:35:29.545Z,96177.76
2023-03-31T23:39:18.904Z,96170.22
2023-03-31T23:42:57.697Z,96168.31
